Vohburg — V2OW7 — position and weather

sailwx.info

Track history (hours):
 
Tides and Currents Weather Stations Pressure Air Temp Water Temp Dewpoint Dewpoint Depression Visibility Wind Speed Wind Dir Waves Ship Positions

Vohburg

Last reported at 2016-Dec-05 15:26 UTC. Time now 2016-Dec-06 16:05 UTC.
Position N 54°14' E 011°17'.

Length 140 m; draft 6.1 m.

Type: Ship (hazmat cat A). MMSI: 305773000.

Date/timePositionNaut miles runAvg speedWind from/ knotsBaromVisibWave heightAir tempDewpointWater temp
2016-Dec-05 15:26N 54°14' E 011°17'1213.2
2016-Dec-05 14:31N 54°25' E 011°24'1313.3
2016-Dec-05 13:34N 54°35' E 011°10'1414.2
2016-Dec-05 12:34N 54°44' E 010°52'1414.2
2016-Dec-05 11:34N 54°58' E 010°59'1514.5
2016-Dec-05 10:34N 55°12' E 011°05'5914.2
2016-Dec-05 06:25N 56°11' E 011°04'5014.8
2016-Dec-05 03:04N 56°60' E 010°51'914.5
2016-Dec-05 02:26N 57°09' E 010°46'1315.3
2016-Dec-05 01:34N 57°22' E 010°42'1515.3
2016-Dec-05 00:33N 57°37' E 010°45'1111.1
2016-Dec-04 23:33N 57°47' E 010°35'1616.3
2016-Dec-04 22:34N 57°41' E 010°07'16615.1
2016-Dec-04 11:32N 55°37' E 006°46'1915.3
2016-Dec-04 10:19N 55°21' E 006°29'7615.5
2016-Dec-04 05:25N 54°17' E 005°18'3115.4
2016-Dec-04 03:26N 53°49' E 004°57'3015.9
2016-Dec-04 01:33N 53°21' E 004°37'1615.8
2016-Dec-04 00:34N 53°07' E 004°26'1615.6
2016-Dec-03 23:34N 52°53' E 004°15'1515.1
2016-Dec-03 22:34N 52°40' E 004°01'1515.3
2016-Dec-03 21:33N 52°29' E 003°45'1715.4
2016-Dec-03 20:29N 52°14' E 003°32'2015.7
2016-Dec-03 19:11N 51°55' E 003°22'1015.4
2016-Dec-03 18:33N 51°47' E 003°13'1615.7
2016-Dec-03 17:33N 51°35' E 002°55'1414.3
2016-Dec-03 16:33N 51°22' E 002°47'1515.2
2016-Dec-03 15:33N 51°22' E 003°11'1 1.2
2016-Dec-03 14:32N 51°21' E 003°11'0 0.0
2016-Dec-03 13:32N 51°21' E 003°11'0 0.0
2016-Dec-03 12:32N 51°21' E 003°11'0 0.0
2016-Dec-03 11:33N 51°21' E 003°11'0 0.0
2016-Dec-03 10:33N 51°21' E 003°11'0 0.0
2016-Dec-03 09:33N 51°21' E 003°11'0 0.0
2016-Dec-03 08:33N 51°21' E 003°11'0 0.0
2016-Dec-03 07:33N 51°21' E 003°11'0 0.0
2016-Dec-03 06:33N 51°21' E 003°11'0 0.0
2016-Dec-03 05:30N 51°21' E 003°11'1 1.0
2016-Dec-03 04:33N 51°22' E 003°12'1615.6
2016-Dec-03 03:33N 51°22' E 002°47'1616.2
2016-Dec-03 02:34N 51°20' E 002°21'1616.1
2016-Dec-03 01:33N 51°22' E 001°55'1616.1
2016-Dec-03 00:34N 51°25' E 001°30'1313.5
2016-Dec-02 23:33N 51°29' E 001°09'1414.2
2016-Dec-02 22:33N 51°28' E 000°47'4 3.6
2016-Dec-02 21:32N 51°26' E 000°41'0 0.0
2016-Dec-02 20:31N 51°26' E 000°41'0 0.0
2016-Dec-02 19:19N 51°26' E 000°41'0 0.0
2016-Dec-02 18:31N 51°26' E 000°41'0 0.0
2016-Dec-02 17:31N 51°26' E 000°41'0 0.0
2016-Dec-02 16:31N 51°26' E 000°41'0 0.0
2016-Dec-02 15:31N 51°26' E 000°41'0 0.0
2016-Dec-02 14:33N 51°26' E 000°41'10 9.7
2016-Dec-02 13:33N 51°29' E 000°56'1817.9
2016-Dec-02 12:34N 51°28' E 001°25'10 9.6
2016-Dec-02 11:33N 51°32' E 001°39'1716.8
2016-Dec-02 10:34N 51°49' E 001°43'1817.8
2016-Dec-02 09:34N 52°07' E 001°47'3417.1
2016-Dec-02 07:34N 52°41' E 001°55'1817.5
2016-Dec-02 06:34N 52°55' E 001°38'1717.4
2016-Dec-02 05:34N 53°08' E 001°19'6817.0
2016-Dec-02 01:34N 54°04' E 000°13'1616.4
2016-Dec-02 00:34N 54°17' W 000°04'1616.3
2016-Dec-01 23:34N 54°29' W 000°22'  
2016-Nov-29 14:05N 57°13' E 008°12'712.0
2016-Nov-29 13:31N 57°16' E 008°23'7612.2
2016-Nov-29 07:16N 57°46' E 010°33'912.9
2016-Nov-29 06:33N 57°45' E 010°50'1413.9
2016-Nov-29 05:34N 57°36' E 011°11'1414.0
2016-Nov-29 04:33N 57°26' E 011°28'1313.2
2016-Nov-29 03:33N 57°13' E 011°37'5913.5
2016-Nov-28 23:13N 56°19' E 012°18'913.2
2016-Nov-28 22:33N 56°12' E 012°26'1212.5
2016-Nov-28 21:33N 56°02' E 012°40'1313.5
2016-Nov-28 20:34N 55°49' E 012°44'1312.7
2016-Nov-28 19:33N 55°36' E 012°42'1212.2
2016-Nov-28 18:33N 55°24' E 012°41'1111.2
2016-Nov-28 17:33N 55°16' E 012°54'1413.8
2016-Nov-28 16:33N 55°15' E 013°18'1413.9
2016-Nov-28 15:33N 55°14' E 013°42'1413.8
2016-Nov-28 14:33N 55°14' E 014°07'1312.6
2016-Nov-28 13:33N 55°19' E 014°26'1414.0
2016-Nov-28 12:33N 55°29' E 014°44'1414.2
2016-Nov-28 11:33N 55°36' E 015°06'347 6.8
2016-Nov-26 08:17N 59°34' E 022°57'1114.8
2016-Nov-26 07:33N 59°37' E 023°18'1514.7
2016-Nov-26 06:33N 59°42' E 023°45'1514.6
2016-Nov-26 05:33N 59°46' E 024°13'1514.2
2016-Nov-26 04:31N 59°49' E 024°42'1314.0
2016-Nov-26 03:33N 59°51' E 025°08'1514.5
2016-Nov-26 02:33N 59°55' E 025°36'1614.7
2016-Nov-26 01:30N 59°58' E 026°07'1414.9
2016-Nov-26 00:33N 60°01' E 026°34'1514.8
2016-Nov-25 23:33N 59°59' E 027°03'1414.4
2016-Nov-25 22:33N 60°07' E 027°28'1414.2
2016-Nov-25 21:33N 60°11' E 027°55'1515.2
2016-Nov-25 20:33N 60°05' E 028°23'1515.1
2016-Nov-25 19:33N 60°03' E 028°53'1914.2
2016-Nov-25 18:12N 60°01' E 029°32'5 8.2
2016-Nov-25 17:32N 60°00' E 029°43'0 0.3
2016-Nov-25 16:33N 60°00' E 029°43'0 0.0
2016-Nov-25 15:33N 60°00' E 029°43'  
Track history (hours):
 
Tides and Currents Weather Stations Pressure Air Temp Water Temp Dewpoint Dewpoint Depression Visibility Wind Speed Wind Dir Waves Ship Positions

Vohburg

Last reported at 2016-Dec-05 15:26 UTC. Time now 2016-Dec-06 16:05 UTC.
Position N 54°14' E 011°17'.

Length 140 m; draft 6.1 m.

Type: Ship (hazmat cat A). MMSI: 305773000.

Date/timePositionNaut miles runAvg speedWind from/ knotsBaromVisibWave heightAir tempDewpointWater temp
2016-Dec-05 15:26N 54°14' E 011°17'1213.2
2016-Dec-05 14:31N 54°25' E 011°24'1313.3
2016-Dec-05 13:34N 54°35' E 011°10'1414.2
2016-Dec-05 12:34N 54°44' E 010°52'1414.2
2016-Dec-05 11:34N 54°58' E 010°59'1514.5
2016-Dec-05 10:34N 55°12' E 011°05'5914.2
2016-Dec-05 06:25N 56°11' E 011°04'5014.8
2016-Dec-05 03:04N 56°60' E 010°51'914.5
2016-Dec-05 02:26N 57°09' E 010°46'1315.3
2016-Dec-05 01:34N 57°22' E 010°42'1515.3
2016-Dec-05 00:33N 57°37' E 010°45'1111.1
2016-Dec-04 23:33N 57°47' E 010°35'1616.3
2016-Dec-04 22:34N 57°41' E 010°07'16615.1
2016-Dec-04 11:32N 55°37' E 006°46'1915.3
2016-Dec-04 10:19N 55°21' E 006°29'7615.5
2016-Dec-04 05:25N 54°17' E 005°18'3115.4
2016-Dec-04 03:26N 53°49' E 004°57'3015.9
2016-Dec-04 01:33N 53°21' E 004°37'1615.8
2016-Dec-04 00:34N 53°07' E 004°26'1615.6
2016-Dec-03 23:34N 52°53' E 004°15'1515.1
2016-Dec-03 22:34N 52°40' E 004°01'1515.3
2016-Dec-03 21:33N 52°29' E 003°45'1715.4
2016-Dec-03 20:29N 52°14' E 003°32'2015.7
2016-Dec-03 19:11N 51°55' E 003°22'1015.4
2016-Dec-03 18:33N 51°47' E 003°13'1615.7
2016-Dec-03 17:33N 51°35' E 002°55'1414.3
2016-Dec-03 16:33N 51°22' E 002°47'1515.2
2016-Dec-03 15:33N 51°22' E 003°11'1 1.2
2016-Dec-03 14:32N 51°21' E 003°11'0 0.0
2016-Dec-03 13:32N 51°21' E 003°11'0 0.0
2016-Dec-03 12:32N 51°21' E 003°11'0 0.0
2016-Dec-03 11:33N 51°21' E 003°11'0 0.0
2016-Dec-03 10:33N 51°21' E 003°11'0 0.0
2016-Dec-03 09:33N 51°21' E 003°11'0 0.0
2016-Dec-03 08:33N 51°21' E 003°11'0 0.0
2016-Dec-03 07:33N 51°21' E 003°11'0 0.0
2016-Dec-03 06:33N 51°21' E 003°11'0 0.0
2016-Dec-03 05:30N 51°21' E 003°11'1 1.0
2016-Dec-03 04:33N 51°22' E 003°12'1615.6
2016-Dec-03 03:33N 51°22' E 002°47'1616.2
2016-Dec-03 02:34N 51°20' E 002°21'1616.1
2016-Dec-03 01:33N 51°22' E 001°55'1616.1
2016-Dec-03 00:34N 51°25' E 001°30'1313.5
2016-Dec-02 23:33N 51°29' E 001°09'1414.2
2016-Dec-02 22:33N 51°28' E 000°47'4 3.6
2016-Dec-02 21:32N 51°26' E 000°41'0 0.0
2016-Dec-02 20:31N 51°26' E 000°41'0 0.0
2016-Dec-02 19:19N 51°26' E 000°41'0 0.0
2016-Dec-02 18:31N 51°26' E 000°41'0 0.0
2016-Dec-02 17:31N 51°26' E 000°41'0 0.0
2016-Dec-02 16:31N 51°26' E 000°41'0 0.0
2016-Dec-02 15:31N 51°26' E 000°41'0 0.0
2016-Dec-02 14:33N 51°26' E 000°41'10 9.7
2016-Dec-02 13:33N 51°29' E 000°56'1817.9
2016-Dec-02 12:34N 51°28' E 001°25'10 9.6
2016-Dec-02 11:33N 51°32' E 001°39'1716.8
2016-Dec-02 10:34N 51°49' E 001°43'1817.8
2016-Dec-02 09:34N 52°07' E 001°47'3417.1
2016-Dec-02 07:34N 52°41' E 001°55'1817.5
2016-Dec-02 06:34N 52°55' E 001°38'1717.4
2016-Dec-02 05:34N 53°08' E 001°19'6817.0
2016-Dec-02 01:34N 54°04' E 000°13'1616.4
2016-Dec-02 00:34N 54°17' W 000°04'1616.3
2016-Dec-01 23:34N 54°29' W 000°22'  
2016-Nov-29 14:05N 57°13' E 008°12'712.0
2016-Nov-29 13:31N 57°16' E 008°23'7612.2
2016-Nov-29 07:16N 57°46' E 010°33'912.9
2016-Nov-29 06:33N 57°45' E 010°50'1413.9
2016-Nov-29 05:34N 57°36' E 011°11'1414.0
2016-Nov-29 04:33N 57°26' E 011°28'1313.2
2016-Nov-29 03:33N 57°13' E 011°37'5913.5
2016-Nov-28 23:13N 56°19' E 012°18'913.2
2016-Nov-28 22:33N 56°12' E 012°26'1212.5
2016-Nov-28 21:33N 56°02' E 012°40'1313.5
2016-Nov-28 20:34N 55°49' E 012°44'1312.7
2016-Nov-28 19:33N 55°36' E 012°42'1212.2
2016-Nov-28 18:33N 55°24' E 012°41'1111.2
2016-Nov-28 17:33N 55°16' E 012°54'1413.8
2016-Nov-28 16:33N 55°15' E 013°18'1413.9
2016-Nov-28 15:33N 55°14' E 013°42'1413.8
2016-Nov-28 14:33N 55°14' E 014°07'1312.6
2016-Nov-28 13:33N 55°19' E 014°26'1414.0
2016-Nov-28 12:33N 55°29' E 014°44'1414.2
2016-Nov-28 11:33N 55°36' E 015°06'347 6.8
2016-Nov-26 08:17N 59°34' E 022°57'1114.8
2016-Nov-26 07:33N 59°37' E 023°18'1514.7
2016-Nov-26 06:33N 59°42' E 023°45'1514.6
2016-Nov-26 05:33N 59°46' E 024°13'1514.2
2016-Nov-26 04:31N 59°49' E 024°42'1314.0
2016-Nov-26 03:33N 59°51' E 025°08'1514.5
2016-Nov-26 02:33N 59°55' E 025°36'1614.7
2016-Nov-26 01:30N 59°58' E 026°07'1414.9
2016-Nov-26 00:33N 60°01' E 026°34'1514.8
2016-Nov-25 23:33N 59°59' E 027°03'1414.4
2016-Nov-25 22:33N 60°07' E 027°28'1414.2
2016-Nov-25 21:33N 60°11' E 027°55'1515.2
2016-Nov-25 20:33N 60°05' E 028°23'1515.1
2016-Nov-25 19:33N 60°03' E 028°53'1914.2
2016-Nov-25 18:12N 60°01' E 029°32'5 8.2
2016-Nov-25 17:32N 60°00' E 029°43'0 0.3
2016-Nov-25 16:33N 60°00' E 029°43'0 0.0
2016-Nov-25 15:33N 60°00' E 029°43'  

Dump ship's entire track history